createdAt,value
2023-04-12T00:00:11.579Z,16.52
2023-04-12T00:01:33.675Z,12.10
2023-04-12T00:02:36.056Z,13.43
2023-04-12T00:03:39.710Z,17.20
2023-04-12T00:04:42.489Z,16.45
2023-04-12T00:05:47.228Z,16.70
2023-04-12T00:06:49.188Z,14.50
2023-04-12T00:07:53.449Z,13.45
2023-04-12T00:08:56.351Z,14.98
2023-04-12T00:09:58.287Z,14.55
2023-04-12T00:11:01.505Z,15.93
2023-04-12T00:12:04.710Z,15.57
2023-04-12T00:13:08.160Z,14.75
2023-04-12T00:14:10.078Z,17.30
2023-04-12T00:15:12.068Z,14.15
2023-04-12T00:16:16.049Z,15.15
2023-04-12T00:17:19.499Z,19.48
2023-04-12T00:18:25.756Z,14.75
2023-04-12T00:19:31.306Z,15.63
2023-04-12T00:20:33.451Z,14.80
2023-04-12T00:21:36.035Z,14.93
2023-04-12T00:22:38.792Z,13.27
2023-04-12T00:23:40.916Z,14.98
2023-04-12T00:24:42.882Z,13.27
2023-04-12T00:25:45.717Z,14.05
2023-04-12T00:26:47.652Z,16.70
2023-04-12T00:27:49.612Z,13.90
2023-04-12T00:28:51.510Z,14.27
2023-04-12T00:29:53.758Z,13.32
2023-04-12T00:30:55.690Z,13.95
2023-04-12T00:31:58.034Z,17.15
2023-04-12T00:33:00.094Z,14.68
2023-04-12T00:34:02.356Z,16.55
2023-04-12T00:35:04.801Z,15.52
2023-04-12T00:36:07.272Z,14.55
2023-04-12T00:37:09.291Z,15.57
2023-04-12T00:38:11.797Z,15.63
2023-04-12T00:39:13.757Z,15.02
2023-04-12T00:40:15.754Z,15.57
2023-04-12T00:41:18.063Z,13.85
2023-04-12T00:42:20.327Z,15.73
2023-04-12T00:43:22.331Z,14.90
2023-04-12T00:44:24.502Z,13.23
2023-04-12T00:45:26.578Z,15.52
2023-04-12T00:46:29.804Z,15.93
2023-04-12T00:47:32.513Z,17.35
2023-04-12T00:48:34.918Z,13.93
2023-04-12T00:49:36.939Z,15.52
2023-04-12T00:50:45.075Z,14.13
2023-04-12T00:51:47.010Z,14.73
2023-04-12T00:52:49.090Z,15.38
2023-04-12T00:53:53.559Z,15.43
2023-04-12T00:54:55.768Z,15.07
2023-04-12T00:55:58.716Z,14.02
2023-04-12T00:57:01.781Z,16.48
2023-04-12T00:58:03.805Z,17.55
2023-04-12T00:59:06.847Z,19.38
2023-04-12T01:00:12.768Z,16.25
2023-04-12T01:01:17.427Z,17.25
2023-04-12T01:02:19.721Z,15.85
2023-04-12T01:03:28.199Z,15.00
2023-04-12T01:04:30.286Z,15.15
2023-04-12T01:05:39.772Z,15.00
2023-04-12T01:06:41.607Z,15.38
2023-04-12T01:07:51.744Z,15.88
2023-04-12T01:09:03.723Z,14.50
2023-04-12T01:10:49.785Z,17.27
2023-04-12T01:12:09.152Z,17.10
2023-04-12T01:13:14.845Z,14.52
2023-04-12T01:14:35.744Z,11.95
2023-04-12T01:15:42.222Z,14.80
2023-04-12T01:16:58.361Z,14.52
2023-04-12T01:18:05.970Z,15.23
2023-04-12T01:19:46.326Z,16.05
2023-04-12T01:20:57.971Z,13.98
2023-04-12T01:22:17.058Z,16.90
2023-04-12T01:23:22.355Z,16.00
2023-04-12T01:24:42.239Z,14.02
2023-04-12T01:26:11.399Z,14.55
2023-04-12T01:27:43.584Z,13.63
2023-04-12T01:28:46.019Z,15.88
2023-04-12T01:29:51.539Z,15.15
2023-04-12T01:30:54.564Z,15.98
2023-04-12T01:32:05.029Z,15.40
2023-04-12T01:33:11.896Z,15.70
2023-04-12T01:34:16.257Z,16.48
2023-04-12T01:35:21.345Z,14.75
2023-04-12T01:36:26.538Z,14.07
2023-04-12T01:37:29.039Z,14.68
2023-04-12T01:39:34.240Z,15.02
2023-04-12T01:41:49.113Z,14.25
2023-04-12T01:42:51.336Z,13.63
2023-04-12T01:43:53.176Z,16.17
2023-04-12T01:44:55.651Z,16.52
2023-04-12T01:45:57.555Z,17.05
2023-04-12T01:47:00.010Z,16.10
2023-04-12T01:48:04.028Z,16.73
2023-04-12T01:49:06.063Z,15.38
2023-04-12T01:50:22.826Z,14.55
2023-04-12T01:51:55.916Z,17.63
2023-04-12T01:53:14.236Z,16.95
2023-04-12T01:54:28.420Z,15.77
2023-04-12T01:55:32.717Z,15.63
2023-04-12T01:56:37.949Z,14.95
2023-04-12T01:57:44.263Z,14.45
2023-04-12T01:58:48.806Z,15.25
2023-04-12T01:59:54.186Z,16.85
2023-04-12T02:00:57.937Z,14.43
2023-04-12T02:01:59.994Z,15.02
2023-04-12T02:03:02.134Z,16.25
2023-04-12T02:04:05.455Z,14.95
2023-04-12T02:05:09.586Z,13.88
2023-04-12T02:06:12.333Z,15.50
2023-04-12T02:07:16.546Z,15.48
2023-04-12T02:08:18.912Z,14.63
2023-04-12T02:09:22.780Z,14.95
2023-04-12T02:10:32.286Z,16.35
2023-04-12T02:11:35.150Z,13.68
2023-04-12T02:12:37.602Z,15.48
2023-04-12T02:13:39.744Z,14.52
2023-04-12T02:14:41.882Z,15.30
2023-04-12T02:15:44.476Z,14.45
2023-04-12T02:17:48.936Z,17.23
2023-04-12T02:18:52.054Z,15.77
2023-04-12T02:19:54.193Z,17.05
2023-04-12T02:20:56.859Z,16.52
2023-04-12T02:21:58.936Z,14.30
2023-04-12T02:23:01.324Z,13.68
2023-04-12T02:24:03.351Z,15.07
2023-04-12T02:25:08.892Z,15.10
2023-04-12T02:26:11.561Z,18.13
2023-04-12T02:27:13.485Z,15.02
2023-04-12T02:28:15.885Z,17.85
2023-04-12T02:29:18.378Z,15.95
2023-04-12T02:30:20.644Z,14.75
2023-04-12T02:31:23.677Z,16.60
2023-04-12T02:32:26.075Z,15.95
2023-04-12T02:33:29.323Z,16.58
2023-04-12T02:35:37.070Z,14.18
2023-04-12T02:36:39.103Z,13.77
2023-04-12T02:37:41.487Z,15.95
2023-04-12T02:38:43.360Z,15.15
2023-04-12T02:39:45.235Z,15.55
2023-04-12T02:40:47.207Z,16.02
2023-04-12T02:41:49.477Z,15.65
2023-04-12T02:42:51.314Z,14.80
2023-04-12T02:43:53.317Z,16.02
2023-04-12T02:44:55.318Z,19.30
2023-04-12T02:45:57.660Z,16.20
2023-04-12T02:46:59.604Z,12.77
2023-04-12T02:48:01.484Z,16.85
2023-04-12T02:49:03.446Z,17.02
2023-04-12T02:50:06.650Z,17.30
2023-04-12T02:52:10.676Z,12.98
2023-04-12T02:53:12.671Z,17.05
2023-04-12T02:54:14.956Z,16.23
2023-04-12T02:55:17.397Z,15.85
2023-04-12T02:56:19.418Z,14.20
2023-04-12T02:57:21.840Z,17.15
2023-04-12T02:58:24.573Z,17.75
2023-04-12T02:59:26.643Z,16.17
2023-04-12T03:00:28.656Z,15.80
2023-04-12T03:01:31.232Z,15.68
2023-04-12T03:02:33.711Z,18.70
2023-04-12T03:03:36.309Z,16.42
2023-04-12T03:04:40.170Z,16.30
2023-04-12T03:05:42.818Z,15.85
2023-04-12T03:06:52.638Z,17.60
2023-04-12T03:07:54.890Z,15.15
2023-04-12T03:08:58.129Z,17.00
2023-04-12T03:10:00.157Z,15.55
2023-04-12T03:11:02.391Z,15.23
2023-04-12T03:12:05.116Z,12.98
2023-04-12T03:13:07.047Z,17.08
2023-04-12T03:14:08.969Z,15.93
2023-04-12T03:15:11.758Z,19.30
2023-04-12T03:16:30.302Z,13.80
2023-04-12T03:17:32.360Z,15.70
2023-04-12T03:18:34.252Z,16.73
2023-04-12T03:19:37.086Z,15.38
2023-04-12T03:20:48.568Z,16.80
2023-04-12T03:21:50.502Z,17.63
2023-04-12T03:22:52.437Z,16.83
2023-04-12T03:23:55.109Z,15.63
2023-04-12T03:24:57.201Z,15.27
2023-04-12T03:25:59.253Z,16.17
2023-04-12T03:27:03.005Z,18.52
2023-04-12T03:28:05.439Z,17.58
2023-04-12T03:29:10.731Z,16.42
2023-04-12T03:30:13.598Z,15.93
2023-04-12T03:31:15.769Z,16.30
2023-04-12T03:32:18.097Z,14.57
2023-04-12T03:33:20.116Z,19.02
2023-04-12T03:34:22.147Z,17.00
2023-04-12T03:35:24.181Z,16.23
2023-04-12T03:36:27.451Z,14.90
2023-04-12T03:37:29.949Z,15.20
2023-04-12T03:38:32.164Z,15.40
2023-04-12T03:39:34.005Z,14.98
2023-04-12T03:40:36.265Z,14.95
2023-04-12T03:41:38.160Z,18.60
2023-04-12T03:42:40.193Z,16.70
2023-04-12T03:43:42.775Z,16.70
2023-04-12T03:45:46.970Z,17.10
2023-04-12T03:46:49.333Z,17.50
2023-04-12T03:47:51.487Z,16.13
2023-04-12T03:48:53.873Z,16.00
2023-04-12T03:50:09.797Z,17.83
2023-04-12T03:51:13.339Z,17.00
2023-04-12T03:52:15.539Z,20.88
2023-04-12T03:53:17.839Z,18.08
2023-04-12T03:54:19.717Z,19.30
2023-04-12T03:55:21.716Z,18.10
2023-04-12T03:56:23.640Z,19.00
2023-04-12T03:57:26.353Z,17.10
2023-04-12T03:58:28.280Z,17.60
2023-04-12T03:59:30.962Z,16.42
2023-04-12T04:00:32.971Z,15.75
2023-04-12T04:01:36.081Z,17.73
2023-04-12T04:02:38.683Z,16.83
2023-04-12T04:03:41.257Z,16.88
2023-04-12T04:04:43.757Z,15.43
2023-04-12T04:05:46.117Z,17.00
2023-04-12T04:06:48.821Z,18.90
2023-04-12T04:07:51.512Z,14.18
2023-04-12T04:08:53.539Z,15.40
2023-04-12T04:09:56.244Z,15.80
2023-04-12T04:10:58.308Z,15.38
2023-04-12T04:12:01.459Z,17.75
2023-04-12T04:13:03.375Z,16.10
2023-04-12T04:14:05.909Z,17.20
2023-04-12T04:15:08.391Z,17.83
2023-04-12T04:16:13.534Z,17.83
2023-04-12T04:17:15.683Z,15.95
2023-04-12T04:18:18.044Z,14.60
2023-04-12T04:19:20.075Z,18.00
2023-04-12T04:20:22.204Z,19.17
2023-04-12T04:21:24.138Z,17.13
2023-04-12T04:22:26.320Z,17.17
2023-04-12T04:23:30.910Z,20.80
2023-04-12T04:24:34.363Z,19.67
2023-04-12T04:25:39.606Z,19.25
2023-04-12T04:26:41.845Z,13.32
2023-04-12T04:27:45.163Z,15.38
2023-04-12T04:28:47.205Z,16.42
2023-04-12T04:29:51.326Z,15.32
2023-04-12T04:30:55.943Z,19.45
2023-04-12T04:31:58.230Z,15.45
2023-04-12T04:33:01.388Z,20.13
2023-04-12T04:34:05.506Z,16.20
2023-04-12T04:35:08.344Z,21.92
2023-04-12T04:36:10.809Z,17.25
2023-04-12T04:37:13.552Z,15.75
2023-04-12T04:38:16.097Z,19.67
2023-04-12T04:40:21.955Z,15.57
2023-04-12T04:41:24.515Z,18.60
2023-04-12T04:42:26.692Z,20.77
2023-04-12T04:43:34.328Z,18.55
2023-04-12T04:44:36.436Z,15.80
2023-04-12T04:45:38.990Z,20.45
2023-04-12T04:46:44.088Z,17.73
2023-04-12T04:47:46.736Z,19.20
2023-04-12T04:48:50.209Z,16.77
2023-04-12T04:49:52.211Z,21.48
2023-04-12T04:50:54.527Z,15.63
2023-04-12T04:51:56.853Z,21.40
2023-04-12T04:52:58.996Z,18.05
2023-04-12T04:54:02.411Z,19.50
2023-04-12T04:55:07.397Z,21.48
2023-04-12T04:56:11.743Z,17.67
2023-04-12T04:57:14.986Z,19.55
2023-04-12T04:58:17.029Z,17.67
2023-04-12T04:59:20.336Z,20.95
2023-04-12T05:00:22.853Z,18.98
2023-04-12T05:01:28.796Z,17.23
2023-04-12T05:02:32.053Z,22.63
2023-04-12T05:03:34.547Z,21.33
2023-04-12T05:05:39.405Z,19.63
2023-04-12T05:06:41.739Z,22.45
2023-04-12T05:07:44.230Z,18.10
2023-04-12T05:08:46.773Z,14.98
2023-04-12T05:09:48.778Z,17.02
2023-04-12T05:10:53.784Z,20.73
2023-04-12T05:11:56.135Z,16.27
2023-04-12T05:12:58.445Z,13.48
2023-04-12T05:14:00.770Z,12.77
2023-04-12T05:16:09.280Z,14.98
2023-04-12T05:17:11.628Z,16.25
2023-04-12T05:18:14.161Z,18.98
2023-04-12T05:19:16.127Z,13.02
2023-04-12T05:20:18.644Z,15.80
2023-04-12T05:21:21.679Z,13.93
2023-04-12T05:22:25.371Z,11.45
2023-04-12T05:23:27.587Z,12.57
2023-04-12T05:24:29.482Z,14.35
2023-04-12T05:25:33.344Z,11.68
2023-04-12T05:26:35.368Z,12.65
2023-04-12T05:27:37.206Z,11.38
2023-04-12T05:28:39.172Z,10.00
2023-04-12T05:29:41.801Z,13.73
2023-04-12T05:30:45.142Z,13.32
2023-04-12T05:31:47.158Z,12.77
2023-04-12T05:32:49.085Z,12.65
2023-04-12T05:33:51.403Z,13.38
2023-04-12T05:34:53.415Z,12.85
2023-04-12T05:35:55.561Z,11.35
2023-04-12T05:36:59.766Z,12.85
2023-04-12T05:38:02.189Z,12.65
2023-04-12T05:39:04.300Z,11.25
2023-04-12T05:40:07.561Z,11.13
2023-04-12T05:41:09.513Z,12.38
2023-04-12T05:42:11.842Z,12.73
2023-04-12T05:43:14.032Z,14.10
2023-04-12T05:44:16.278Z,14.30
2023-04-12T05:45:18.319Z,16.40
2023-04-12T05:46:20.673Z,12.35
2023-04-12T05:47:22.752Z,8.73
2023-04-12T05:48:24.704Z,11.48
2023-04-12T05:49:30.466Z,10.73
2023-04-12T05:50:32.833Z,12.50
2023-04-12T05:51:40.893Z,10.60
2023-04-12T05:52:43.860Z,11.52
2023-04-12T05:53:45.758Z,11.77
2023-04-12T05:54:47.986Z,10.65
2023-04-12T05:55:49.988Z,11.85
2023-04-12T05:56:54.625Z,8.43
2023-04-12T05:57:56.644Z,8.48
2023-04-12T05:58:59.394Z,10.93
2023-04-12T06:00:01.422Z,11.95
2023-04-12T06:01:03.559Z,11.13
2023-04-12T06:02:05.588Z,11.93
2023-04-12T06:04:12.944Z,8.55
2023-04-12T06:05:15.843Z,10.02
2023-04-12T06:07:21.491Z,10.98
2023-04-12T06:08:23.489Z,11.95
2023-04-12T06:09:25.396Z,13.57
2023-04-12T06:10:27.414Z,11.52
2023-04-12T06:11:29.717Z,9.07
2023-04-12T06:12:31.627Z,10.85
2023-04-12T06:13:33.597Z,10.60
2023-04-12T06:14:35.646Z,8.98
2023-04-12T06:15:38.006Z,13.30
2023-04-12T06:16:41.822Z,10.02
2023-04-12T06:17:44.087Z,48.45
2023-04-12T06:18:46.358Z,28.60
2023-04-12T06:19:48.558Z,26.52
2023-04-12T06:20:50.936Z,20.13
2023-04-12T06:21:53.176Z,25.02
2023-04-12T06:22:55.171Z,29.63
2023-04-12T06:23:57.460Z,25.38
2023-04-12T06:24:59.685Z,27.88
2023-04-12T06:26:01.620Z,21.17
2023-04-12T06:27:03.728Z,15.30
2023-04-12T06:28:05.905Z,16.48
2023-04-12T06:29:07.800Z,17.58
2023-04-12T06:30:10.775Z,14.43
2023-04-12T06:32:15.033Z,11.57
2023-04-12T06:33:16.872Z,22.15
2023-04-12T06:34:18.929Z,14.82
2023-04-12T06:35:21.775Z,13.75
2023-04-12T06:36:24.129Z,15.75
2023-04-12T06:37:26.253Z,19.92
2023-04-12T06:38:28.129Z,13.27
2023-04-12T06:39:30.349Z,18.50
2023-04-12T06:40:32.900Z,12.27
2023-04-12T06:41:34.801Z,20.70
2023-04-12T06:42:37.059Z,15.70
2023-04-12T06:43:39.017Z,17.63
2023-04-12T06:44:41.827Z,14.95
2023-04-12T06:45:43.796Z,14.02
2023-04-12T06:46:45.847Z,16.10
2023-04-12T06:47:47.843Z,13.10
2023-04-12T06:48:50.104Z,13.23
2023-04-12T06:49:54.756Z,15.65
2023-04-12T06:50:57.849Z,20.48
2023-04-12T06:51:59.742Z,12.10
2023-04-12T06:53:02.045Z,17.25
2023-04-12T06:54:04.031Z,16.77
2023-04-12T06:55:07.373Z,10.18
2023-04-12T06:56:09.445Z,15.98
2023-04-12T06:57:11.971Z,11.57
2023-04-12T06:58:13.955Z,10.95
2023-04-12T06:59:15.844Z,13.32
2023-04-12T07:00:17.956Z,11.05
2023-04-12T07:01:20.300Z,9.18
2023-04-12T07:02:22.486Z,10.00
2023-04-12T07:03:24.930Z,10.45
2023-04-12T07:04:26.876Z,9.32
2023-04-12T07:05:29.117Z,13.52
2023-04-12T07:06:31.600Z,9.73
2023-04-12T07:07:33.463Z,11.35
2023-04-12T07:08:36.407Z,11.55
2023-04-12T07:09:38.640Z,10.07
2023-04-12T07:10:40.585Z,13.98
2023-04-12T07:11:43.470Z,11.57
2023-04-12T07:13:47.735Z,14.30
2023-04-12T07:14:49.608Z,9.25
2023-04-12T07:15:52.274Z,11.40
2023-04-12T07:16:54.377Z,8.15
2023-04-12T07:17:57.017Z,12.15
2023-04-12T07:19:00.568Z,6.65
2023-04-12T07:20:02.624Z,9.35
2023-04-12T07:21:04.796Z,8.48
2023-04-12T07:22:07.060Z,8.45
2023-04-12T07:23:09.002Z,10.05
2023-04-12T07:24:11.338Z,5.55
2023-04-12T07:25:13.408Z,7.80
2023-04-12T07:26:15.645Z,8.80
2023-04-12T07:27:17.622Z,9.05
2023-04-12T07:28:20.730Z,6.38
2023-04-12T07:29:22.655Z,5.22
2023-04-12T07:30:25.827Z,7.35
2023-04-12T07:31:30.668Z,6.25
2023-04-12T07:32:32.721Z,6.38
2023-04-12T07:33:39.409Z,5.45
2023-04-12T07:34:43.075Z,7.53
2023-04-12T07:35:45.202Z,4.72
2023-04-12T07:36:47.213Z,4.75
2023-04-12T07:37:49.094Z,8.70
2023-04-12T07:38:55.862Z,5.25
2023-04-12T07:39:58.245Z,5.50
2023-04-12T07:41:00.229Z,7.28
2023-04-12T07:42:02.294Z,6.15
2023-04-12T07:43:04.822Z,6.97
2023-04-12T07:44:06.767Z,5.03
2023-04-12T07:45:08.858Z,5.18
2023-04-12T07:46:11.350Z,7.35
2023-04-12T07:47:13.648Z,5.53
2023-04-12T07:48:15.552Z,4.93
2023-04-12T07:49:17.506Z,5.82
2023-04-12T07:50:19.545Z,4.38
2023-04-12T07:51:21.796Z,6.07
2023-04-12T07:52:23.754Z,4.18
2023-04-12T07:53:27.896Z,5.10
2023-04-12T07:54:32.697Z,4.40
2023-04-12T07:55:35.056Z,4.45
2023-04-12T07:56:37.028Z,6.35
2023-04-12T07:57:39.001Z,6.00
2023-04-12T07:58:41.156Z,6.65
2023-04-12T07:59:43.464Z,3.67
2023-04-12T08:00:46.272Z,6.95
2023-04-12T08:02:50.202Z,4.25
2023-04-12T08:03:52.788Z,3.53
2023-04-12T08:04:54.956Z,4.78
2023-04-12T08:05:57.170Z,3.78
2023-04-12T08:06:59.273Z,3.55
2023-04-12T08:08:01.577Z,3.15
2023-04-12T08:09:03.689Z,4.80
2023-04-12T08:10:06.418Z,4.82
2023-04-12T08:11:08.360Z,4.25
2023-04-12T08:12:11.746Z,6.70
2023-04-12T08:13:13.728Z,4.18
2023-04-12T08:14:15.664Z,5.35
2023-04-12T08:15:17.608Z,6.22
2023-04-12T08:16:20.059Z,4.45
2023-04-12T08:17:24.474Z,2.00
2023-04-12T08:18:26.715Z,4.10
2023-04-12T08:19:28.638Z,4.10
2023-04-12T08:20:31.891Z,8.82
2023-04-12T08:21:34.241Z,4.60
2023-04-12T08:22:36.274Z,6.82
2023-04-12T08:23:38.363Z,2.75
2023-04-12T08:24:41.121Z,4.75
2023-04-12T08:25:43.091Z,3.70
2023-04-12T08:26:45.053Z,4.70
2023-04-12T08:27:46.948Z,3.65
2023-04-12T08:28:49.288Z,3.55
2023-04-12T08:29:51.155Z,4.38
2023-04-12T08:30:53.171Z,4.13
2023-04-12T08:31:56.568Z,3.00
2023-04-12T08:32:58.830Z,4.72
2023-04-12T08:34:00.988Z,4.57
2023-04-12T08:35:03.311Z,3.30
2023-04-12T08:36:06.282Z,2.40
2023-04-12T08:37:08.648Z,2.70
2023-04-12T08:38:10.941Z,3.58
2023-04-12T08:39:12.907Z,4.50
2023-04-12T08:40:15.289Z,3.85
2023-04-12T08:41:17.621Z,3.08
2023-04-12T08:42:19.949Z,4.55
2023-04-12T08:43:22.983Z,4.03
2023-04-12T08:44:36.072Z,3.72
2023-04-12T08:45:38.840Z,9.02
2023-04-12T08:46:41.145Z,2.55
2023-04-12T08:47:44.523Z,4.57
2023-04-12T08:48:47.950Z,5.40
2023-04-12T08:49:50.731Z,6.47
2023-04-12T08:50:53.249Z,4.07
2023-04-12T08:51:55.355Z,4.30
2023-04-12T08:52:58.697Z,6.53
2023-04-12T08:54:01.537Z,3.72
2023-04-12T08:55:07.796Z,3.78
2023-04-12T08:56:11.971Z,3.70
2023-04-12T08:57:14.426Z,3.13
2023-04-12T08:58:16.975Z,4.18
2023-04-12T08:59:20.388Z,5.65
2023-04-12T09:00:22.581Z,3.88
2023-04-12T09:01:24.998Z,4.15
2023-04-12T09:03:33.678Z,4.82
2023-04-12T09:04:48.745Z,6.38
2023-04-12T09:05:50.786Z,3.08
2023-04-12T09:06:53.003Z,5.78
2023-04-12T09:07:54.952Z,3.28
2023-04-12T09:08:58.267Z,3.05
2023-04-12T09:10:00.352Z,6.65
2023-04-12T09:11:21.041Z,4.07
2023-04-12T09:12:24.599Z,4.35
2023-04-12T09:13:34.696Z,3.60
2023-04-12T09:14:38.269Z,3.92
2023-04-12T09:15:52.055Z,12.15
2023-04-12T09:16:53.994Z,6.15
2023-04-12T09:18:06.468Z,8.23
2023-04-12T09:19:09.276Z,3.67
2023-04-12T09:20:17.869Z,4.47
2023-04-12T09:21:19.977Z,5.55
2023-04-12T09:22:34.445Z,3.53
2023-04-12T09:23:39.065Z,3.17
2023-04-12T09:24:50.269Z,3.35
2023-04-12T09:25:53.740Z,4.10
2023-04-12T09:27:03.379Z,3.97
2023-04-12T09:28:19.529Z,17.35
2023-04-12T09:29:25.798Z,8.93
2023-04-12T09:30:27.996Z,3.72
2023-04-12T09:31:30.543Z,2.92
2023-04-12T09:32:32.608Z,3.47
2023-04-12T09:33:34.894Z,3.42
2023-04-12T09:34:37.440Z,6.38
2023-04-12T09:35:39.811Z,4.20
2023-04-12T09:36:42.016Z,4.93
2023-04-12T09:37:46.906Z,5.18
2023-04-12T09:39:02.241Z,5.40
2023-04-12T09:40:06.251Z,5.45
2023-04-12T09:41:27.588Z,4.35
2023-04-12T09:42:33.806Z,4.47
2023-04-12T09:43:39.719Z,3.60
2023-04-12T09:44:41.725Z,4.47
2023-04-12T09:45:43.753Z,4.72
2023-04-12T09:46:52.701Z,5.03
2023-04-12T09:47:55.683Z,4.00
2023-04-12T09:50:01.461Z,7.75
2023-04-12T09:51:04.034Z,4.95
2023-04-12T09:52:07.677Z,6.43
2023-04-12T09:53:17.598Z,4.88
2023-04-12T09:54:19.855Z,3.28
2023-04-12T09:55:25.381Z,3.65
2023-04-12T09:56:35.991Z,4.82
2023-04-12T09:57:43.450Z,3.88
2023-04-12T09:58:47.068Z,4.15
2023-04-12T09:59:52.907Z,4.70
2023-04-12T10:00:57.211Z,6.88
2023-04-12T10:01:59.707Z,5.40
2023-04-12T10:03:02.253Z,3.28
2023-04-12T10:04:09.407Z,3.80
2023-04-12T10:05:13.925Z,4.53
2023-04-12T10:06:16.734Z,3.72
2023-04-12T10:08:23.557Z,4.78
2023-04-12T10:09:25.561Z,5.32
2023-04-12T10:10:27.729Z,3.58
2023-04-12T10:11:29.728Z,5.70
2023-04-12T10:12:32.227Z,4.65
2023-04-12T10:13:34.424Z,5.05
2023-04-12T10:14:37.360Z,5.43
2023-04-12T10:16:42.850Z,6.45
2023-04-12T10:17:47.643Z,4.60
2023-04-12T10:18:50.800Z,4.30
2023-04-12T10:19:53.392Z,4.40
2023-04-12T10:20:55.794Z,6.60
2023-04-12T10:21:58.546Z,5.47
2023-04-12T10:23:00.879Z,5.47
2023-04-12T10:24:03.099Z,7.50
2023-04-12T10:25:06.079Z,4.25
2023-04-12T10:26:08.177Z,4.57
2023-04-12T10:27:10.510Z,4.30
2023-04-12T10:28:20.062Z,7.88
2023-04-12T10:29:26.747Z,5.40
2023-04-12T10:30:30.791Z,4.80
2023-04-12T10:31:33.199Z,6.55
2023-04-12T10:32:36.503Z,11.02
2023-04-12T10:33:38.875Z,5.07
2023-04-12T10:34:42.883Z,3.92
2023-04-12T10:36:07.035Z,6.57
2023-04-12T10:37:09.146Z,5.05
2023-04-12T10:38:11.465Z,3.72
2023-04-12T10:39:14.883Z,7.35
2023-04-12T10:40:17.659Z,4.95
2023-04-12T10:42:27.514Z,6.43
2023-04-12T10:43:30.341Z,5.43
2023-04-12T10:44:32.343Z,4.40
2023-04-12T10:45:34.383Z,3.95
2023-04-12T10:46:38.157Z,6.65
2023-04-12T10:47:49.028Z,5.43
2023-04-12T10:48:53.303Z,4.07
2023-04-12T10:50:25.185Z,6.78
2023-04-12T10:51:30.130Z,5.28
2023-04-12T10:52:32.030Z,4.05
2023-04-12T10:53:34.282Z,4.63
2023-04-12T10:54:36.433Z,4.80
2023-04-12T10:55:42.969Z,4.30
2023-04-12T10:56:48.165Z,4.35
2023-04-12T10:57:50.085Z,3.83
2023-04-12T10:58:52.127Z,4.70
2023-04-12T10:59:57.612Z,4.13
2023-04-12T11:00:59.593Z,3.85
2023-04-12T11:02:12.528Z,4.65
2023-04-12T11:03:15.220Z,5.10
2023-04-12T11:04:19.022Z,4.97
2023-04-12T11:05:21.328Z,6.40
2023-04-12T11:06:42.678Z,6.07
2023-04-12T11:07:45.522Z,5.18
2023-04-12T11:08:48.739Z,5.57
2023-04-12T11:10:59.238Z,4.55
2023-04-12T11:12:04.133Z,4.30
2023-04-12T11:13:09.149Z,5.07
2023-04-12T11:14:11.502Z,4.43
2023-04-12T11:15:14.070Z,4.93
2023-04-12T11:16:16.369Z,6.15
2023-04-12T11:17:18.747Z,6.22
2023-04-12T11:18:22.307Z,10.55
2023-04-12T11:19:24.815Z,5.20
2023-04-12T11:20:27.914Z,5.57
2023-04-12T11:21:31.041Z,4.97
2023-04-12T11:22:33.941Z,6.38
2023-04-12T11:24:51.230Z,6.47
2023-04-12T11:25:53.789Z,6.60
2023-04-12T11:26:57.496Z,5.18
2023-04-12T11:28:00.811Z,5.03
2023-04-12T11:29:08.065Z,4.22
2023-04-12T11:30:12.445Z,4.05
2023-04-12T11:31:15.384Z,3.95
2023-04-12T11:32:19.275Z,6.20
2023-04-12T11:33:38.871Z,5.40
2023-04-12T11:34:43.266Z,5.03
2023-04-12T11:35:46.205Z,6.57
2023-04-12T11:36:58.719Z,5.28
2023-04-12T11:38:00.648Z,5.63
2023-04-12T11:39:02.976Z,5.75
2023-04-12T11:40:08.221Z,4.18
2023-04-12T11:41:10.413Z,4.75
2023-04-12T11:42:20.864Z,5.43
2023-04-12T11:43:23.303Z,6.00
2023-04-12T11:44:25.558Z,5.55
2023-04-12T11:45:29.577Z,5.35
2023-04-12T11:46:34.500Z,4.93
2023-04-12T11:47:43.234Z,5.20
2023-04-12T11:48:46.122Z,4.70
2023-04-12T11:50:59.846Z,5.03
2023-04-12T11:52:10.515Z,4.25
2023-04-12T11:53:13.475Z,5.68
2023-04-12T11:54:16.149Z,5.75
2023-04-12T11:55:18.213Z,5.15
2023-04-12T11:56:20.581Z,5.10
2023-04-12T11:57:22.775Z,4.97
2023-04-12T11:58:27.715Z,4.40
2023-04-12T11:59:34.044Z,6.82
2023-04-12T12:00:36.639Z,4.85
2023-04-12T12:01:38.932Z,4.57
2023-04-12T12:02:49.375Z,6.22
2023-04-12T12:03:55.122Z,3.92
2023-04-12T12:04:57.863Z,7.00
2023-04-12T12:06:00.439Z,5.65
2023-04-12T12:08:07.950Z,5.78
2023-04-12T12:09:10.436Z,6.63
2023-04-12T12:10:16.422Z,4.45
2023-04-12T12:11:24.749Z,5.03
2023-04-12T12:12:27.686Z,5.78
2023-04-12T12:13:50.470Z,4.53
2023-04-12T12:14:52.429Z,5.50
2023-04-12T12:15:54.359Z,6.65
2023-04-12T12:16:58.788Z,5.18
2023-04-12T12:18:02.653Z,4.72
2023-04-12T12:19:05.723Z,4.80
2023-04-12T12:20:19.150Z,5.75
2023-04-12T12:21:21.950Z,5.43
2023-04-12T12:22:24.165Z,4.78
2023-04-12T12:23:30.122Z,7.22
2023-04-12T12:24:32.489Z,5.00
2023-04-12T12:25:34.718Z,4.32
2023-04-12T12:26:37.265Z,3.50
2023-04-12T12:27:41.013Z,4.50
2023-04-12T12:28:42.895Z,5.05
2023-04-12T12:29:44.824Z,4.68
2023-04-12T12:30:47.218Z,4.60
2023-04-12T12:31:49.410Z,5.78
2023-04-12T12:32:54.587Z,4.85
2023-04-12T12:34:03.782Z,5.70
2023-04-12T12:35:14.112Z,4.38
2023-04-12T12:36:21.143Z,6.50
2023-04-12T12:37:27.672Z,4.13
2023-04-12T12:38:37.902Z,4.82
2023-04-12T12:39:40.234Z,7.68
2023-04-12T12:40:42.513Z,4.97
2023-04-12T12:41:44.503Z,5.30
2023-04-12T12:42:52.097Z,6.05
2023-04-12T12:43:54.435Z,7.75
2023-04-12T12:44:56.316Z,4.75
2023-04-12T12:45:58.943Z,6.07
2023-04-12T12:47:10.168Z,4.85
2023-04-12T12:48:16.169Z,5.75
2023-04-12T12:49:19.076Z,5.03
2023-04-12T12:51:27.333Z,4.93
2023-04-12T12:52:29.891Z,6.13
2023-04-12T12:53:31.958Z,6.03
2023-04-12T12:54:41.227Z,6.90
2023-04-12T12:55:43.740Z,5.30
2023-04-12T12:56:48.709Z,4.00
2023-04-12T12:58:06.789Z,5.60
2023-04-12T12:59:09.755Z,4.43
2023-04-12T13:00:15.850Z,5.78
2023-04-12T13:01:18.081Z,4.65
2023-04-12T13:02:20.074Z,9.00
2023-04-12T13:03:22.845Z,5.75
2023-04-12T13:04:25.486Z,5.85
2023-04-12T13:06:29.753Z,4.50
2023-04-12T13:07:31.863Z,4.75
2023-04-12T13:08:35.604Z,7.03
2023-04-12T13:09:37.827Z,4.72
2023-04-12T13:10:39.841Z,5.70
2023-04-12T13:11:41.903Z,5.22
2023-04-12T13:12:43.913Z,5.88
2023-04-12T13:13:46.167Z,8.43
2023-04-12T13:14:48.739Z,5.05
2023-04-12T13:15:53.080Z,4.55
2023-04-12T13:16:55.208Z,4.63
2023-04-12T13:17:57.586Z,4.60
2023-04-12T13:18:59.744Z,5.07
2023-04-12T13:20:01.775Z,4.75
2023-04-12T13:21:03.930Z,4.95
2023-04-12T13:22:07.463Z,4.65
2023-04-12T13:23:09.632Z,5.10
2023-04-12T13:24:11.749Z,5.75
2023-04-12T13:25:14.160Z,5.18
2023-04-12T13:26:16.523Z,5.88
2023-04-12T13:27:18.432Z,5.03
2023-04-12T13:28:20.987Z,5.13
2023-04-12T13:29:22.892Z,4.40
2023-04-12T13:30:25.085Z,5.22
2023-04-12T13:31:27.316Z,4.35
2023-04-12T13:32:29.263Z,4.15
2023-04-12T13:33:31.246Z,5.63
2023-04-12T13:34:33.524Z,5.22
2023-04-12T13:35:35.595Z,3.75
2023-04-12T13:36:37.808Z,5.43
2023-04-12T13:37:39.845Z,5.30
2023-04-12T13:38:42.181Z,5.53
2023-04-12T13:39:44.968Z,6.78
2023-04-12T13:41:48.801Z,4.60
2023-04-12T13:42:51.048Z,7.45
2023-04-12T13:43:52.946Z,6.35
2023-04-12T13:44:54.895Z,5.13
2023-04-12T13:45:56.882Z,7.38
2023-04-12T13:46:59.152Z,5.65
2023-04-12T13:48:01.200Z,5.82
2023-04-12T13:49:03.289Z,4.40
2023-04-12T13:50:05.775Z,5.15
2023-04-12T13:52:10.099Z,4.85
2023-04-12T13:53:12.026Z,6.68
2023-04-12T13:54:15.836Z,6.30
2023-04-12T13:55:18.167Z,7.20
2023-04-12T13:56:21.018Z,5.88
2023-04-12T13:58:25.985Z,5.57
2023-04-12T13:59:28.568Z,4.95
2023-04-12T14:00:30.693Z,4.47
2023-04-12T14:01:33.043Z,5.40
2023-04-12T14:02:35.143Z,6.32
2023-04-12T14:03:37.718Z,10.45
2023-04-12T14:04:50.939Z,8.10
2023-04-12T14:05:53.100Z,5.80
2023-04-12T14:06:55.030Z,5.18
2023-04-12T14:07:57.349Z,9.93
2023-04-12T14:08:59.622Z,5.88
2023-04-12T14:10:01.921Z,4.90
2023-04-12T14:11:04.117Z,3.92
2023-04-12T14:12:06.370Z,6.93
2023-04-12T14:13:08.385Z,6.22
2023-04-12T14:14:10.350Z,7.75
2023-04-12T14:15:12.265Z,5.18
2023-04-12T14:16:14.559Z,7.00
2023-04-12T14:17:16.649Z,4.88
2023-04-12T14:18:19.592Z,5.63
2023-04-12T14:19:22.057Z,7.50
2023-04-12T14:20:24.273Z,5.63
2023-04-12T14:21:29.256Z,5.72
2023-04-12T14:22:31.650Z,5.53
2023-04-12T14:23:33.574Z,8.38
2023-04-12T14:24:36.909Z,6.93
2023-04-12T14:25:40.205Z,4.93